createdAt,value
2022-10-08T00:02:12.491Z,14.05
2022-10-08T00:05:01.123Z,13.95
2022-10-08T00:07:49.624Z,13.99
2022-10-08T00:10:39.654Z,13.88
2022-10-08T00:13:40.812Z,13.84
2022-10-08T00:16:31.688Z,13.87
2022-10-08T00:19:20.224Z,13.84
2022-10-08T00:22:08.739Z,13.78
2022-10-08T00:24:57.880Z,13.80
2022-10-08T00:27:47.778Z,13.89
2022-10-08T00:30:38.168Z,13.80
2022-10-08T00:33:27.672Z,13.59
2022-10-08T00:36:16.270Z,13.67
2022-10-08T00:39:06.692Z,13.70
2022-10-08T00:41:57.210Z,13.69
2022-10-08T00:44:55.180Z,13.64
2022-10-08T00:47:46.739Z,13.61
2022-10-08T00:50:37.653Z,13.62
2022-10-08T00:53:26.191Z,13.57
2022-10-08T00:56:15.024Z,13.53
2022-10-08T00:59:04.019Z,13.49
2022-10-08T01:01:54.219Z,13.47
2022-10-08T01:04:44.743Z,13.45
2022-10-08T01:07:39.994Z,13.32
2022-10-08T01:10:36.133Z,13.14
2022-10-08T01:13:39.418Z,13.42
2022-10-08T01:16:34.936Z,13.37
2022-10-08T01:19:49.145Z,13.42
2022-10-08T01:22:51.331Z,13.35
2022-10-08T01:25:54.439Z,13.34
2022-10-08T01:28:48.102Z,13.19
2022-10-08T01:31:43.363Z,12.82
2022-10-08T01:34:38.307Z,13.20
2022-10-08T01:37:36.605Z,13.28
2022-10-08T01:40:31.751Z,13.18
2022-10-08T01:43:25.040Z,13.06
2022-10-08T01:46:22.799Z,13.01
2022-10-08T01:49:15.238Z,12.79
2022-10-08T01:52:09.082Z,12.99
2022-10-08T01:55:03.261Z,13.06
2022-10-08T01:57:55.237Z,13.10
2022-10-08T02:00:44.161Z,13.20
2022-10-08T02:03:34.168Z,13.15
2022-10-08T02:06:24.194Z,12.68
2022-10-08T02:09:13.109Z,11.95
2022-10-08T02:12:01.895Z,12.86
2022-10-08T02:14:54.325Z,12.70
2022-10-08T02:17:55.064Z,12.92
2022-10-08T02:20:52.666Z,12.81
2022-10-08T02:23:47.029Z,12.74
2022-10-08T02:26:41.840Z,11.80
2022-10-08T02:29:37.149Z,12.73
2022-10-08T02:32:31.522Z,12.87
2022-10-08T02:35:25.533Z,12.84
2022-10-08T02:38:20.289Z,12.90
2022-10-08T02:41:11.795Z,12.57
2022-10-08T02:44:06.715Z,12.65
2022-10-08T02:47:00.719Z,12.58
2022-10-08T02:49:54.507Z,12.59
2022-10-08T02:52:46.312Z,12.57
2022-10-08T02:55:42.978Z,12.58
2022-10-08T02:58:32.104Z,12.61
2022-10-08T03:01:28.772Z,12.67
2022-10-08T03:04:23.937Z,12.68
2022-10-08T03:07:13.807Z,12.55
2022-10-08T03:10:06.830Z,12.75
2022-10-08T03:13:01.937Z,12.81
2022-10-08T03:15:52.915Z,12.79
2022-10-08T03:18:42.507Z,12.74
2022-10-08T03:21:31.719Z,12.11
2022-10-08T03:24:20.246Z,12.73
2022-10-08T03:27:08.727Z,12.74
2022-10-08T03:29:58.615Z,12.74
2022-10-08T03:32:47.298Z,12.69
2022-10-08T03:35:36.014Z,12.79
2022-10-08T03:38:24.544Z,12.73
2022-10-08T03:41:13.131Z,12.90
2022-10-08T03:44:01.691Z,12.74
2022-10-08T03:46:51.546Z,12.94
2022-10-08T03:49:40.162Z,12.87
2022-10-08T03:52:28.708Z,13.06
2022-10-08T03:55:17.287Z,12.92
2022-10-08T03:58:05.775Z,12.88
2022-10-08T04:01:05.702Z,12.99
2022-10-08T04:03:55.765Z,12.91
2022-10-08T04:06:44.218Z,13.02
2022-10-08T04:09:32.785Z,13.03
2022-10-08T04:12:21.261Z,13.00
2022-10-08T04:15:10.668Z,12.87
2022-10-08T04:17:59.131Z,12.51
2022-10-08T04:20:49.025Z,12.75
2022-10-08T04:23:39.604Z,12.82
2022-10-08T04:26:28.061Z,12.67
2022-10-08T04:29:16.607Z,12.87
2022-10-08T04:32:05.073Z,12.89
2022-10-08T04:34:53.558Z,12.87
2022-10-08T04:37:43.448Z,12.91
2022-10-08T04:40:31.958Z,12.79
2022-10-08T04:43:20.429Z,12.74
2022-10-08T04:46:10.484Z,12.76
2022-10-08T04:49:00.216Z,12.76
2022-10-08T04:51:48.775Z,12.44
2022-10-08T04:54:38.675Z,12.40
2022-10-08T04:57:27.169Z,12.89
2022-10-08T05:00:18.549Z,12.83
2022-10-08T05:03:07.597Z,12.79
2022-10-08T05:05:56.169Z,12.79
2022-10-08T05:08:45.510Z,12.88
2022-10-08T05:11:35.495Z,12.99
2022-10-08T05:14:24.187Z,12.41
2022-10-08T05:17:12.710Z,13.05
2022-10-08T05:20:01.226Z,13.05
2022-10-08T05:22:49.822Z,12.93
2022-10-08T05:25:38.547Z,12.83
2022-10-08T05:28:28.493Z,12.84
2022-10-08T05:31:17.737Z,12.70
2022-10-08T05:34:06.833Z,12.68
2022-10-08T05:36:55.320Z,12.82
2022-10-08T05:39:43.835Z,12.87
2022-10-08T05:42:32.429Z,12.90
2022-10-08T05:45:22.326Z,12.99
2022-10-08T05:48:10.852Z,12.99
2022-10-08T05:51:05.665Z,12.25
2022-10-08T05:53:56.839Z,12.89
2022-10-08T05:56:45.429Z,13.01
2022-10-08T05:59:33.987Z,12.96
2022-10-08T06:02:24.060Z,13.01
2022-10-08T06:05:12.655Z,13.08
2022-10-08T06:08:01.190Z,13.04
2022-10-08T06:10:51.285Z,13.26
2022-10-08T06:13:40.145Z,13.38
2022-10-08T06:16:30.150Z,13.52
2022-10-08T06:19:20.220Z,13.70
2022-10-08T06:22:08.835Z,13.69
2022-10-08T06:24:57.323Z,13.83
2022-10-08T06:27:45.805Z,13.85
2022-10-08T06:30:34.354Z,14.10
2022-10-08T06:33:22.945Z,14.11
2022-10-08T06:36:17.007Z,14.13
2022-10-08T06:39:07.936Z,14.47
2022-10-08T06:41:56.699Z,14.36
2022-10-08T06:44:45.271Z,14.71
2022-10-08T06:47:34.131Z,14.86
2022-10-08T06:50:22.626Z,14.96
2022-10-08T06:53:12.650Z,14.91
2022-10-08T06:56:02.557Z,14.98
2022-10-08T06:58:51.355Z,14.98
2022-10-08T07:01:39.993Z,15.28
2022-10-08T07:04:28.615Z,15.37
2022-10-08T07:07:17.084Z,15.43
2022-10-08T07:10:07.775Z,15.45
2022-10-08T07:12:56.257Z,15.60
2022-10-08T07:15:44.806Z,15.65
2022-10-08T07:18:34.645Z,15.68
2022-10-08T07:21:23.943Z,15.84
2022-10-08T07:24:12.655Z,15.96
2022-10-08T07:27:02.547Z,16.18
2022-10-08T07:29:51.074Z,16.26
2022-10-08T07:32:39.579Z,16.44
2022-10-08T07:35:31.349Z,16.52
2022-10-08T07:38:19.877Z,16.61
2022-10-08T07:41:09.834Z,16.89
2022-10-08T07:44:01.359Z,16.74
2022-10-08T07:46:51.255Z,16.71
2022-10-08T07:49:39.770Z,16.41
2022-10-08T07:52:28.278Z,16.44
2022-10-08T07:55:17.073Z,16.44
2022-10-08T07:58:05.741Z,16.57
2022-10-08T08:00:59.184Z,16.79
2022-10-08T08:03:47.837Z,16.99
2022-10-08T08:06:41.392Z,17.11
2022-10-08T08:09:30.340Z,17.24
2022-10-08T08:12:18.839Z,17.28
2022-10-08T08:15:08.445Z,17.41
2022-10-08T08:17:58.425Z,17.48
2022-10-08T08:20:46.995Z,17.32
2022-10-08T08:23:37.855Z,17.68
2022-10-08T08:26:29.109Z,17.58
2022-10-08T08:29:19.703Z,17.81
2022-10-08T08:32:08.243Z,17.73
2022-10-08T08:34:58.243Z,17.72
2022-10-08T08:37:46.795Z,17.91
2022-10-08T08:40:35.291Z,18.13
2022-10-08T08:43:24.090Z,18.22
2022-10-08T08:46:18.963Z,18.47
2022-10-08T08:49:15.517Z,18.53
2022-10-08T08:52:07.890Z,18.59
2022-10-08T08:54:56.538Z,18.72
2022-10-08T08:57:52.295Z,18.78
2022-10-08T09:00:43.626Z,18.88
2022-10-08T09:03:36.048Z,18.85
2022-10-08T09:06:26.494Z,18.94
2022-10-08T09:09:28.673Z,19.00
2022-10-08T09:12:21.096Z,18.37
2022-10-08T09:15:18.959Z,19.09
2022-10-08T09:18:07.840Z,19.13
2022-10-08T09:20:56.354Z,19.25
2022-10-08T09:23:46.466Z,19.15
2022-10-08T09:26:37.396Z,18.97
2022-10-08T09:29:34.835Z,19.45
2022-10-08T09:32:23.586Z,19.42
2022-10-08T09:35:17.020Z,19.51
2022-10-08T09:38:06.235Z,19.51
2022-10-08T09:41:02.738Z,19.43
2022-10-08T09:44:12.606Z,19.70
2022-10-08T09:47:06.797Z,19.66
2022-10-08T09:50:06.209Z,19.79
2022-10-08T09:52:57.312Z,19.71
2022-10-08T09:55:53.569Z,19.93
2022-10-08T09:58:51.461Z,19.95
2022-10-08T10:01:47.857Z,19.93
2022-10-08T10:04:38.859Z,19.96
2022-10-08T10:07:39.244Z,19.91
2022-10-08T10:10:33.028Z,19.82
2022-10-08T10:13:29.575Z,19.94
2022-10-08T10:16:22.790Z,20.08
2022-10-08T10:19:19.747Z,20.04
2022-10-08T10:22:14.516Z,20.06
2022-10-08T10:25:07.213Z,20.18
2022-10-08T10:28:02.895Z,20.32
2022-10-08T10:30:58.772Z,20.59
2022-10-08T10:33:55.888Z,20.96
2022-10-08T10:36:52.917Z,21.17
2022-10-08T10:39:46.178Z,21.50
2022-10-08T10:42:40.843Z,21.64
2022-10-08T10:45:36.270Z,21.67
2022-10-08T10:48:24.876Z,21.51
2022-10-08T10:51:46.727Z,21.59
2022-10-08T10:54:54.990Z,21.87
2022-10-08T10:58:07.219Z,21.94
2022-10-08T11:01:04.710Z,21.99
2022-10-08T11:04:02.126Z,22.02
2022-10-08T11:07:02.818Z,21.96
2022-10-08T11:10:00.196Z,21.55
2022-10-08T11:12:57.985Z,22.10
2022-10-08T11:15:56.725Z,21.91
2022-10-08T11:18:51.265Z,22.23
2022-10-08T11:21:55.165Z,22.11
2022-10-08T11:25:08.039Z,21.97
2022-10-08T11:28:10.104Z,22.06
2022-10-08T11:31:09.915Z,22.44
2022-10-08T11:33:59.076Z,22.66
2022-10-08T11:36:56.780Z,22.23
2022-10-08T11:39:52.269Z,22.91
2022-10-08T11:42:51.058Z,23.01
2022-10-08T11:45:41.854Z,22.97
2022-10-08T11:48:36.077Z,23.04
2022-10-08T11:51:41.224Z,23.13
2022-10-08T11:54:34.536Z,23.14
2022-10-08T11:57:55.463Z,22.99
2022-10-08T12:00:44.635Z,22.99
2022-10-08T12:03:37.343Z,22.92
2022-10-08T12:06:28.286Z,22.88
2022-10-08T12:09:24.216Z,23.00
2022-10-08T12:12:14.980Z,23.27
2022-10-08T12:15:03.546Z,23.22
2022-10-08T12:17:54.967Z,23.23
2022-10-08T12:20:43.594Z,23.08
2022-10-08T12:23:41.218Z,22.94
2022-10-08T12:26:29.766Z,22.82
2022-10-08T12:29:28.610Z,22.54
2022-10-08T12:32:17.207Z,22.54
2022-10-08T12:35:20.362Z,22.97
2022-10-08T12:38:25.324Z,22.94
2022-10-08T12:41:22.278Z,23.02
2022-10-08T12:44:25.529Z,22.76
2022-10-08T12:47:24.408Z,22.83
2022-10-08T12:50:34.156Z,22.88
2022-10-08T12:53:23.088Z,23.03
2022-10-08T12:56:17.369Z,22.78
2022-10-08T12:59:06.249Z,22.55
2022-10-08T13:01:55.940Z,22.30
2022-10-08T13:04:47.759Z,22.26
2022-10-08T13:07:37.725Z,22.34
2022-10-08T13:10:28.437Z,22.31
2022-10-08T13:13:41.862Z,22.36
2022-10-08T13:16:47.090Z,22.04
2022-10-08T13:19:37.575Z,22.01
2022-10-08T13:22:27.798Z,22.19
2022-10-08T13:25:37.284Z,22.42
2022-10-08T13:28:48.334Z,22.90
2022-10-08T13:31:36.425Z,23.33
2022-10-08T13:34:27.346Z,23.78
2022-10-08T13:37:17.698Z,23.95
2022-10-08T13:40:18.555Z,24.08
2022-10-08T13:43:08.616Z,24.35
2022-10-08T13:45:57.111Z,24.22
2022-10-08T13:48:46.083Z,24.10
2022-10-08T13:51:34.577Z,23.98
2022-10-08T13:54:25.616Z,24.13
2022-10-08T13:57:14.655Z,24.13
2022-10-08T14:00:06.300Z,23.64
2022-10-08T14:02:54.955Z,23.06
2022-10-08T14:05:45.642Z,22.70
2022-10-08T14:08:34.496Z,22.37
2022-10-08T14:11:23.137Z,22.51
2022-10-08T14:14:15.041Z,22.60
2022-10-08T14:17:05.055Z,22.26
2022-10-08T14:19:54.675Z,22.55
2022-10-08T14:22:43.314Z,22.46
2022-10-08T14:25:32.386Z,22.56
2022-10-08T14:28:20.971Z,22.88
2022-10-08T14:31:12.946Z,23.13
2022-10-08T14:34:03.190Z,23.58
2022-10-08T14:36:55.424Z,23.70
2022-10-08T14:39:43.978Z,23.63
2022-10-08T14:42:32.495Z,23.61
2022-10-08T14:45:22.337Z,23.42
2022-10-08T14:48:11.865Z,23.47
2022-10-08T14:51:01.938Z,23.25
2022-10-08T14:53:51.229Z,22.56
2022-10-08T14:56:41.397Z,23.11
2022-10-08T14:59:29.976Z,23.86
2022-10-08T15:02:18.631Z,24.71
2022-10-08T15:05:08.047Z,24.58
2022-10-08T15:07:58.015Z,24.12
2022-10-08T15:10:47.609Z,23.31
2022-10-08T15:13:36.181Z,23.02
2022-10-08T15:16:24.895Z,22.80
2022-10-08T15:19:13.586Z,22.54
2022-10-08T15:22:02.116Z,22.30
2022-10-08T15:24:52.075Z,22.10
2022-10-08T15:27:40.666Z,21.80
2022-10-08T15:30:29.161Z,21.59
2022-10-08T15:33:17.671Z,21.54
2022-10-08T15:36:06.578Z,21.15
2022-10-08T15:39:00.156Z,20.68
2022-10-08T15:41:52.795Z,21.08
2022-10-08T15:44:44.389Z,20.97
2022-10-08T15:47:32.923Z,20.79
2022-10-08T15:50:21.415Z,20.66
2022-10-08T15:53:09.932Z,20.54
2022-10-08T15:55:58.781Z,20.33
2022-10-08T15:58:51.126Z,20.33
2022-10-08T16:01:40.165Z,20.20
2022-10-08T16:04:28.915Z,20.12
2022-10-08T16:07:17.259Z,19.93
2022-10-08T16:10:06.797Z,19.69
2022-10-08T16:12:55.322Z,19.55
2022-10-08T16:15:45.277Z,19.27
2022-10-08T16:18:33.834Z,19.16
2022-10-08T16:21:22.365Z,19.14
2022-10-08T16:24:11.325Z,19.03
2022-10-08T16:26:59.874Z,18.85
2022-10-08T16:29:48.105Z,18.77
2022-10-08T16:32:37.825Z,18.59
2022-10-08T16:35:26.079Z,18.48
2022-10-08T16:38:15.080Z,18.39
2022-10-08T16:41:22.150Z,18.25
2022-10-08T16:44:13.385Z,17.74
2022-10-08T16:47:01.984Z,17.95
2022-10-08T16:49:51.948Z,17.94
2022-10-08T16:52:40.521Z,17.81
2022-10-08T16:55:28.979Z,17.77
2022-10-08T16:58:17.567Z,17.65
2022-10-08T17:01:07.683Z,17.55
2022-10-08T17:03:56.687Z,17.55
2022-10-08T17:06:46.898Z,17.35
2022-10-08T17:09:37.129Z,17.45
2022-10-08T17:12:25.858Z,17.35
2022-10-08T17:15:14.432Z,17.33
2022-10-08T17:18:03.644Z,17.22
2022-10-08T17:20:52.190Z,17.11
2022-10-08T17:23:42.450Z,17.07
2022-10-08T17:26:32.319Z,17.21
2022-10-08T17:29:20.889Z,17.29
2022-10-08T17:32:11.646Z,17.21
2022-10-08T17:35:00.215Z,17.10
2022-10-08T17:37:48.847Z,16.73
2022-10-08T17:40:40.007Z,17.19
2022-10-08T17:43:28.816Z,17.01
2022-10-08T17:46:18.694Z,17.07
2022-10-08T17:49:07.809Z,17.16
2022-10-08T17:51:57.167Z,16.73
2022-10-08T17:54:46.256Z,17.11
2022-10-08T17:57:36.418Z,16.72
2022-10-08T18:00:26.279Z,17.00
2022-10-08T18:03:18.387Z,16.93
2022-10-08T18:06:09.665Z,16.96
2022-10-08T18:09:00.387Z,16.91
2022-10-08T18:11:52.232Z,16.96
2022-10-08T18:14:42.286Z,16.92
2022-10-08T18:17:31.195Z,16.87
2022-10-08T18:20:21.286Z,16.64
2022-10-08T18:23:14.087Z,16.77
2022-10-08T18:26:11.005Z,16.75
2022-10-08T18:29:01.344Z,16.63
2022-10-08T18:31:51.480Z,16.53
2022-10-08T18:34:40.968Z,16.74
2022-10-08T18:37:30.893Z,16.81
2022-10-08T18:40:20.373Z,16.84
2022-10-08T18:43:10.505Z,16.81
2022-10-08T18:46:04.251Z,16.74
2022-10-08T18:48:56.544Z,16.79
2022-10-08T18:51:52.346Z,16.73
2022-10-08T18:54:43.008Z,16.65
2022-10-08T18:57:35.046Z,16.59
2022-10-08T19:00:25.289Z,16.56
2022-10-08T19:03:13.957Z,16.48
2022-10-08T19:06:08.039Z,16.43
2022-10-08T19:08:57.305Z,16.45
2022-10-08T19:11:47.287Z,16.31
2022-10-08T19:14:36.274Z,16.24
2022-10-08T19:17:24.860Z,16.33
2022-10-08T19:20:13.674Z,16.13
2022-10-08T19:23:06.829Z,15.81
2022-10-08T19:25:55.775Z,15.82
2022-10-08T19:28:48.293Z,16.04
2022-10-08T19:31:37.346Z,16.02
2022-10-08T19:34:29.776Z,15.97
2022-10-08T19:37:20.485Z,15.90
2022-10-08T19:40:13.399Z,15.93
2022-10-08T19:43:03.937Z,15.91
2022-10-08T19:45:54.145Z,15.91
2022-10-08T19:48:44.220Z,15.70
2022-10-08T19:51:38.529Z,15.79
2022-10-08T19:54:28.529Z,15.77
2022-10-08T19:57:18.615Z,15.64
2022-10-08T20:00:09.300Z,15.82
2022-10-08T20:02:58.846Z,15.84
2022-10-08T20:05:47.569Z,15.63
2022-10-08T20:08:36.725Z,16.00
2022-10-08T20:11:29.389Z,16.04
2022-10-08T20:14:19.757Z,16.10
2022-10-08T20:17:08.315Z,16.04
2022-10-08T20:20:09.665Z,16.02
2022-10-08T20:23:05.354Z,16.02
2022-10-08T20:25:53.937Z,16.03
2022-10-08T20:28:42.643Z,15.67
2022-10-08T20:31:35.407Z,16.02
2022-10-08T20:34:27.164Z,16.05
2022-10-08T20:37:15.733Z,16.07
2022-10-08T20:40:04.377Z,16.06
2022-10-08T20:42:52.838Z,16.13
2022-10-08T20:45:41.336Z,15.97
2022-10-08T20:48:32.989Z,15.81
2022-10-08T20:51:23.818Z,16.18
2022-10-08T20:54:14.131Z,15.68
2022-10-08T20:57:02.595Z,15.43
2022-10-08T20:59:51.116Z,15.68
2022-10-08T21:02:39.585Z,15.44
2022-10-08T21:05:29.516Z,15.77
2022-10-08T21:08:18.036Z,15.64
2022-10-08T21:11:08.436Z,15.62
2022-10-08T21:13:57.875Z,15.59
2022-10-08T21:16:46.574Z,15.50
2022-10-08T21:19:35.089Z,15.46
2022-10-08T21:22:25.170Z,15.41
2022-10-08T21:25:13.751Z,15.11
2022-10-08T21:28:02.380Z,14.64
2022-10-08T21:30:54.815Z,15.52
2022-10-08T21:33:44.735Z,15.43
2022-10-08T21:36:36.016Z,15.67
2022-10-08T21:39:25.934Z,15.70
2022-10-08T21:42:14.499Z,15.60
2022-10-08T21:45:03.079Z,15.12
2022-10-08T21:47:51.638Z,15.46
2022-10-08T21:50:40.115Z,15.35
2022-10-08T21:53:30.678Z,15.61
2022-10-08T21:56:22.876Z,15.60
2022-10-08T21:59:13.765Z,15.78
2022-10-08T22:02:02.293Z,15.74
2022-10-08T22:04:51.035Z,15.57
2022-10-08T22:07:39.570Z,15.69
2022-10-08T22:10:28.039Z,15.57
2022-10-08T22:13:18.976Z,15.70
2022-10-08T22:16:08.812Z,15.69
2022-10-08T22:18:57.947Z,15.56
2022-10-08T22:21:46.995Z,15.58
2022-10-08T22:24:36.407Z,15.51
2022-10-08T22:27:24.985Z,15.74
2022-10-08T22:30:15.065Z,15.72
2022-10-08T22:33:03.700Z,15.77
2022-10-08T22:35:52.273Z,15.75
2022-10-08T22:38:42.536Z,15.52
2022-10-08T22:41:32.898Z,15.89
2022-10-08T22:44:22.091Z,15.79
2022-10-08T22:47:12.015Z,15.72
2022-10-08T22:50:00.659Z,15.76
2022-10-08T22:52:50.889Z,15.78
2022-10-08T22:55:41.979Z,15.81
2022-10-08T22:58:30.515Z,15.84
2022-10-08T23:01:21.230Z,15.80
2022-10-08T23:04:11.187Z,16.08
2022-10-08T23:06:59.638Z,16.04
2022-10-08T23:09:47.925Z,16.39
2022-10-08T23:12:36.155Z,16.37
2022-10-08T23:15:24.425Z,16.30
2022-10-08T23:18:12.616Z,16.24
2022-10-08T23:21:03.788Z,16.18
2022-10-08T23:23:53.823Z,16.07
2022-10-08T23:26:42.185Z,16.05
2022-10-08T23:29:30.430Z,15.94
2022-10-08T23:32:18.706Z,15.78
2022-10-08T23:35:07.330Z,15.64
2022-10-08T23:37:57.039Z,15.64
2022-10-08T23:40:45.316Z,15.60
2022-10-08T23:43:35.504Z,15.50
2022-10-08T23:46:24.502Z,15.42
2022-10-08T23:49:12.955Z,15.29
2022-10-08T23:52:01.212Z,15.23
2022-10-08T23:54:50.857Z,15.19
2022-10-08T23:57:39.129Z,15.13
